createdAt,value
2023-03-05T00:00:23.023Z,61.96
2023-03-05T00:02:50.166Z,61.27
2023-03-05T00:05:17.326Z,61.64
2023-03-05T00:07:44.472Z,61.84
2023-03-05T00:10:21.537Z,61.50
2023-03-05T00:12:48.609Z,62.21
2023-03-05T00:15:15.828Z,61.56
2023-03-05T00:17:42.872Z,62.61
2023-03-05T00:20:14.910Z,62.36
2023-03-05T00:22:41.934Z,62.05
2023-03-05T00:25:09.503Z,62.18
2023-03-05T00:27:36.496Z,62.18
2023-03-05T00:30:04.360Z,61.16
2023-03-05T00:32:31.555Z,61.50
2023-03-05T00:34:58.707Z,61.45
2023-03-05T00:37:25.887Z,62.25
2023-03-05T00:39:52.952Z,62.58
2023-03-05T00:42:20.006Z,62.68
2023-03-05T00:44:47.074Z,62.17
2023-03-05T00:47:14.250Z,62.11
2023-03-05T00:49:41.306Z,62.39
2023-03-05T00:52:08.456Z,62.01
2023-03-05T00:54:35.517Z,61.99
2023-03-05T00:57:02.732Z,62.11
2023-03-05T00:59:33.443Z,62.26
2023-03-05T01:02:00.507Z,62.14
2023-03-05T01:04:27.507Z,62.35
2023-03-05T01:06:54.573Z,62.35
2023-03-05T01:09:22.301Z,61.99
2023-03-05T01:11:49.420Z,62.09
2023-03-05T01:14:16.598Z,62.47
2023-03-05T01:16:43.679Z,62.52
2023-03-05T01:19:10.683Z,62.21
2023-03-05T01:21:37.732Z,62.34
2023-03-05T01:24:05.102Z,62.81
2023-03-05T01:26:32.276Z,62.50
2023-03-05T01:28:59.395Z,62.33
2023-03-05T01:31:26.446Z,61.88
2023-03-05T01:33:54.025Z,62.28
2023-03-05T01:36:21.304Z,62.28
2023-03-05T01:38:48.393Z,63.00
2023-03-05T01:41:16.486Z,62.33
2023-03-05T01:43:44.454Z,62.42
2023-03-05T01:46:22.214Z,62.05
2023-03-05T01:48:52.323Z,61.74
2023-03-05T01:51:20.477Z,62.00
2023-03-05T01:53:47.988Z,62.95
2023-03-05T01:56:15.485Z,63.31
2023-03-05T01:58:42.726Z,62.93
2023-03-05T02:01:10.084Z,62.86
2023-03-05T02:03:37.510Z,64.31
2023-03-05T02:06:04.695Z,63.31
2023-03-05T02:08:31.972Z,63.59
2023-03-05T02:11:00.645Z,62.27
2023-03-05T02:13:29.876Z,62.81
2023-03-05T02:15:58.727Z,62.41
2023-03-05T02:18:25.871Z,62.65
2023-03-05T02:20:55.108Z,61.95
2023-03-05T02:23:23.310Z,62.95
2023-03-05T02:25:50.363Z,62.86
2023-03-05T02:28:17.712Z,62.19
2023-03-05T02:30:44.758Z,62.53
2023-03-05T02:33:13.559Z,63.07
2023-03-05T02:35:40.628Z,64.17
2023-03-05T02:38:07.686Z,63.81
2023-03-05T02:40:34.854Z,62.99
2023-03-05T02:43:01.885Z,62.49
2023-03-05T02:45:28.972Z,62.33
2023-03-05T02:47:56.194Z,61.79
2023-03-05T02:50:23.349Z,61.88
2023-03-05T02:52:50.445Z,62.56
2023-03-05T02:55:17.680Z,62.49
2023-03-05T02:57:44.699Z,62.95
2023-03-05T03:00:12.394Z,63.76
2023-03-05T03:02:39.472Z,63.36
2023-03-05T03:05:07.081Z,62.96
2023-03-05T03:07:36.340Z,63.15
2023-03-05T03:10:04.194Z,62.72
2023-03-05T03:12:31.379Z,63.42
2023-03-05T03:14:58.375Z,62.42
2023-03-05T03:17:25.551Z,62.87
2023-03-05T03:19:52.784Z,63.22
2023-03-05T03:22:19.810Z,64.71
2023-03-05T03:24:46.997Z,66.43
2023-03-05T03:27:14.049Z,66.01
2023-03-05T03:29:41.049Z,65.46
2023-03-05T03:32:08.954Z,63.75
2023-03-05T03:34:35.993Z,62.74
2023-03-05T03:37:03.016Z,62.53
2023-03-05T03:39:30.120Z,62.80
2023-03-05T03:41:57.230Z,62.08
2023-03-05T03:44:24.403Z,62.08
2023-03-05T03:46:51.879Z,62.96
2023-03-05T03:49:21.252Z,63.77
2023-03-05T03:51:48.749Z,63.62
2023-03-05T03:54:16.441Z,63.17
2023-03-05T03:56:43.450Z,61.80
2023-03-05T03:59:10.555Z,62.36
2023-03-05T04:01:38.043Z,62.22
2023-03-05T04:04:05.432Z,62.77
2023-03-05T04:06:33.429Z,63.30
2023-03-05T04:09:00.641Z,62.58
2023-03-05T04:11:27.578Z,62.74
2023-03-05T04:13:54.642Z,62.52
2023-03-05T04:16:21.529Z,63.15
2023-03-05T04:18:48.398Z,62.69
2023-03-05T04:21:15.399Z,63.05
2023-03-05T04:23:42.257Z,62.18
2023-03-05T04:26:09.238Z,61.99
2023-03-05T04:28:36.482Z,61.95
2023-03-05T04:31:04.229Z,62.15
2023-03-05T04:33:31.248Z,63.12
2023-03-05T04:35:58.200Z,62.25
2023-03-05T04:38:25.165Z,62.50
2023-03-05T04:40:52.078Z,62.13
2023-03-05T04:43:18.968Z,61.84
2023-03-05T04:45:45.892Z,62.91
2023-03-05T04:48:14.970Z,62.59
2023-03-05T04:50:41.972Z,61.99
2023-03-05T04:53:08.888Z,62.10
2023-03-05T04:55:35.796Z,61.55
2023-03-05T04:58:03.052Z,61.60
2023-03-05T05:00:29.944Z,62.20
2023-03-05T05:02:56.900Z,61.97
2023-03-05T05:05:25.484Z,62.02
2023-03-05T05:07:55.626Z,61.76
2023-03-05T05:10:22.591Z,61.61
2023-03-05T05:12:49.410Z,62.30
2023-03-05T05:15:16.339Z,61.86
2023-03-05T05:17:43.211Z,62.69
2023-03-05T05:20:11.744Z,65.37
2023-03-05T05:22:38.870Z,63.54
2023-03-05T05:25:05.982Z,62.59
2023-03-05T05:27:33.236Z,61.93
2023-03-05T05:30:00.917Z,62.53
2023-03-05T05:32:27.809Z,62.71
2023-03-05T05:34:56.347Z,62.00
2023-03-05T05:37:23.513Z,61.65
2023-03-05T05:39:51.347Z,62.09
2023-03-05T05:42:18.730Z,62.04
2023-03-05T05:44:45.642Z,63.58
2023-03-05T05:47:12.615Z,62.85
2023-03-05T05:49:39.900Z,61.95
2023-03-05T05:52:07.149Z,60.88
2023-03-05T05:54:34.261Z,61.10
2023-03-05T05:57:01.168Z,60.88
2023-03-05T05:59:28.132Z,61.90
2023-03-05T06:01:55.101Z,60.94
2023-03-05T06:04:22.159Z,61.40
2023-03-05T06:06:49.043Z,61.27
2023-03-05T06:09:15.876Z,61.02
2023-03-05T06:11:42.873Z,61.51
2023-03-05T06:14:11.104Z,61.44
2023-03-05T06:16:38.078Z,61.64
2023-03-05T06:19:05.437Z,61.99
2023-03-05T06:21:32.693Z,62.70
2023-03-05T06:23:59.725Z,62.44
2023-03-05T06:26:26.589Z,61.61
2023-03-05T06:28:53.834Z,62.12
2023-03-05T06:31:23.255Z,60.97
2023-03-05T06:33:50.641Z,61.66
2023-03-05T06:36:20.019Z,61.46
2023-03-05T06:38:48.449Z,60.52
2023-03-05T06:41:17.525Z,60.49
2023-03-05T06:43:45.267Z,60.42
2023-03-05T06:46:12.483Z,60.96
2023-03-05T06:48:39.849Z,61.54
2023-03-05T06:51:12.752Z,61.62
2023-03-05T06:53:39.580Z,61.00
2023-03-05T06:56:06.499Z,61.09
2023-03-05T06:58:33.347Z,60.96
2023-03-05T07:01:00.388Z,60.53
2023-03-05T07:03:27.283Z,60.00
2023-03-05T07:05:54.144Z,60.15
2023-03-05T07:08:23.108Z,60.30
2023-03-05T07:10:49.986Z,60.32
2023-03-05T07:13:16.976Z,59.88
2023-03-05T07:15:44.035Z,59.49
2023-03-05T07:18:10.921Z,59.70
2023-03-05T07:20:37.898Z,59.93
2023-03-05T07:23:04.930Z,60.24
2023-03-05T07:25:32.340Z,59.22
2023-03-05T07:27:59.278Z,58.85
2023-03-05T07:30:26.144Z,58.65
2023-03-05T07:32:53.045Z,59.51
2023-03-05T07:35:20.005Z,59.68
2023-03-05T07:37:47.121Z,59.11
2023-03-05T07:40:14.155Z,57.98
2023-03-05T07:42:40.985Z,57.92
2023-03-05T07:45:08.409Z,57.75
2023-03-05T07:47:35.940Z,57.81
2023-03-05T07:50:04.013Z,58.04
2023-03-05T07:52:30.984Z,58.03
2023-03-05T07:54:57.831Z,58.10
2023-03-05T07:57:24.588Z,58.31
2023-03-05T07:59:51.342Z,57.84
2023-03-05T08:02:19.989Z,57.60
2023-03-05T08:04:46.739Z,57.75
2023-03-05T08:07:15.294Z,57.97
2023-03-05T08:09:46.960Z,58.16
2023-03-05T08:12:13.743Z,57.57
2023-03-05T08:14:40.577Z,56.73
2023-03-05T08:17:08.344Z,57.38
2023-03-05T08:19:35.073Z,57.29
2023-03-05T08:22:02.010Z,57.29
2023-03-05T08:24:29.953Z,57.67
2023-03-05T08:26:59.941Z,57.39
2023-03-05T08:29:26.718Z,56.82
2023-03-05T08:31:53.819Z,56.82
2023-03-05T08:34:21.332Z,56.58
2023-03-05T08:36:48.298Z,57.89
2023-03-05T08:39:15.476Z,58.02
2023-03-05T08:41:42.242Z,57.64
2023-03-05T08:44:09.315Z,57.17
2023-03-05T08:46:37.161Z,58.10
2023-03-05T08:49:03.975Z,58.65
2023-03-05T08:51:30.758Z,57.30
2023-03-05T08:53:59.069Z,58.33
2023-03-05T08:56:27.847Z,57.36
2023-03-05T08:58:54.648Z,57.08
2023-03-05T09:01:22.841Z,57.13
2023-03-05T09:03:49.966Z,56.53
2023-03-05T09:06:16.724Z,56.44
2023-03-05T09:08:43.487Z,55.77
2023-03-05T09:11:11.960Z,56.42
2023-03-05T09:13:38.771Z,55.75
2023-03-05T09:16:07.244Z,56.03
2023-03-05T09:18:36.942Z,56.93
2023-03-05T09:21:07.778Z,55.87
2023-03-05T09:23:34.951Z,55.69
2023-03-05T09:26:01.872Z,56.38
2023-03-05T09:28:28.677Z,55.72
2023-03-05T09:30:55.443Z,55.89
2023-03-05T09:33:22.172Z,56.11
2023-03-05T09:35:49.028Z,55.85
2023-03-05T09:38:24.340Z,55.62
2023-03-05T09:40:51.602Z,55.16
2023-03-05T09:43:21.498Z,55.44
2023-03-05T09:45:59.117Z,55.89
2023-03-05T09:48:38.639Z,55.49
2023-03-05T09:51:05.492Z,55.40
2023-03-05T09:53:35.346Z,55.22
2023-03-05T09:56:04.996Z,55.26
2023-03-05T09:58:34.892Z,55.92
2023-03-05T10:01:04.061Z,55.01
2023-03-05T10:03:36.126Z,55.38
2023-03-05T10:06:06.012Z,56.04
2023-03-05T10:08:42.289Z,55.51
2023-03-05T10:11:20.623Z,55.92
2023-03-05T10:13:47.641Z,55.24
2023-03-05T10:16:17.598Z,55.41
2023-03-05T10:18:47.634Z,55.55
2023-03-05T10:21:17.082Z,54.84
2023-03-05T10:23:49.836Z,55.09
2023-03-05T10:26:16.958Z,54.62
2023-03-05T10:28:46.716Z,55.29
2023-03-05T10:31:16.534Z,54.74
2023-03-05T10:33:46.452Z,54.95
2023-03-05T10:36:16.463Z,54.71
2023-03-05T10:38:46.878Z,55.29
2023-03-05T10:41:14.972Z,55.47
2023-03-05T10:43:43.364Z,55.31
2023-03-05T10:46:15.420Z,55.55
2023-03-05T10:48:45.226Z,55.46
2023-03-05T10:51:15.725Z,55.14
2023-03-05T10:53:45.644Z,56.14
2023-03-05T10:56:12.643Z,56.42
2023-03-05T10:58:39.744Z,56.08
2023-03-05T11:01:07.008Z,57.62
2023-03-05T11:03:36.827Z,56.45
2023-03-05T11:06:03.679Z,56.28
2023-03-05T11:08:32.691Z,56.08
2023-03-05T11:11:04.105Z,56.49
2023-03-05T11:13:31.088Z,57.00
2023-03-05T11:15:59.415Z,56.24
2023-03-05T11:18:26.571Z,57.27
2023-03-05T11:21:06.911Z,57.16
2023-03-05T11:23:34.591Z,56.61
2023-03-05T11:26:04.530Z,58.09
2023-03-05T11:28:37.869Z,57.65
2023-03-05T11:31:08.032Z,57.10
2023-03-05T11:33:36.124Z,57.56
2023-03-05T11:36:05.981Z,56.80
2023-03-05T11:38:34.130Z,56.54
2023-03-05T11:41:01.887Z,56.56
2023-03-05T11:43:31.142Z,56.43
2023-03-05T11:46:01.821Z,56.88
2023-03-05T11:48:33.404Z,56.61
2023-03-05T11:51:01.799Z,56.53
2023-03-05T11:53:30.053Z,57.51
2023-03-05T11:56:00.191Z,56.29
2023-03-05T11:58:32.838Z,55.93
2023-03-05T12:01:00.693Z,55.96
2023-03-05T12:03:31.925Z,55.82
2023-03-05T12:06:02.404Z,56.15
2023-03-05T12:08:35.553Z,56.66
2023-03-05T12:11:06.601Z,55.94
2023-03-05T12:13:34.883Z,55.31
2023-03-05T12:16:04.783Z,56.21
2023-03-05T12:18:37.676Z,56.94
2023-03-05T12:21:07.568Z,55.73
2023-03-05T12:23:37.487Z,56.05
2023-03-05T12:26:04.606Z,55.55
2023-03-05T12:28:37.551Z,55.85
2023-03-05T12:31:06.032Z,56.31
2023-03-05T12:33:36.846Z,56.86
2023-03-05T12:36:06.713Z,55.81
2023-03-05T12:38:34.646Z,56.14
2023-03-05T12:41:04.588Z,55.32
2023-03-05T12:43:32.793Z,56.38
2023-03-05T12:46:02.698Z,55.71
2023-03-05T12:48:32.455Z,55.98
2023-03-05T12:50:59.667Z,54.75
2023-03-05T12:53:26.552Z,54.20
2023-03-05T12:55:57.604Z,53.80
2023-03-05T12:58:26.389Z,53.13
2023-03-05T13:01:00.372Z,54.33
2023-03-05T13:03:30.920Z,58.52
2023-03-05T13:05:58.815Z,59.65
2023-03-05T13:08:29.809Z,57.62
2023-03-05T13:10:59.562Z,56.26
2023-03-05T13:13:27.716Z,56.06
2023-03-05T13:15:54.747Z,53.79
2023-03-05T13:18:28.692Z,52.08
2023-03-05T13:20:58.800Z,53.70
2023-03-05T13:23:26.857Z,51.83
2023-03-05T13:25:56.808Z,52.68
2023-03-05T13:28:27.022Z,52.69
2023-03-05T13:30:55.882Z,52.39
2023-03-05T13:33:25.332Z,53.11
2023-03-05T13:35:53.936Z,53.08
2023-03-05T13:38:26.487Z,53.09
2023-03-05T13:40:58.724Z,53.40
2023-03-05T13:43:25.586Z,54.31
2023-03-05T13:45:55.204Z,53.82
2023-03-05T13:48:25.588Z,54.22
2023-03-05T13:50:55.875Z,53.46
2023-03-05T13:53:25.748Z,53.89
2023-03-05T13:55:54.870Z,54.58
2023-03-05T13:58:27.376Z,54.42
2023-03-05T14:01:03.031Z,53.79
2023-03-05T14:03:30.561Z,54.64
2023-03-05T14:05:57.498Z,54.58
2023-03-05T14:08:28.041Z,53.79
2023-03-05T14:10:57.264Z,54.03
2023-03-05T14:13:25.470Z,53.72
2023-03-05T14:15:55.492Z,54.72
2023-03-05T14:18:24.455Z,55.49
2023-03-05T14:20:54.622Z,54.46
2023-03-05T14:23:26.791Z,55.67
2023-03-05T14:26:11.526Z,55.44
2023-03-05T14:28:38.622Z,56.09
2023-03-05T14:31:15.655Z,54.78
2023-03-05T14:33:42.628Z,55.82
2023-03-05T14:36:11.201Z,56.09
2023-03-05T14:38:41.730Z,55.19
2023-03-05T14:41:12.162Z,55.39
2023-03-05T14:43:39.113Z,56.32
2023-03-05T14:46:06.176Z,57.47
2023-03-05T14:48:33.573Z,57.16
2023-03-05T14:51:01.600Z,55.97
2023-03-05T14:53:32.093Z,56.44
2023-03-05T14:56:00.442Z,55.67
2023-03-05T14:58:34.743Z,54.88
2023-03-05T15:01:04.125Z,54.68
2023-03-05T15:03:33.334Z,54.27
2023-03-05T15:06:00.966Z,53.10
2023-03-05T15:08:30.725Z,53.20
2023-03-05T15:10:58.262Z,53.38
2023-03-05T15:13:25.195Z,52.54
2023-03-05T15:15:53.050Z,52.79
2023-03-05T15:18:28.709Z,51.83
2023-03-05T15:20:57.371Z,51.51
2023-03-05T15:23:24.746Z,51.79
2023-03-05T15:25:51.744Z,52.61
2023-03-05T15:28:29.074Z,53.25
2023-03-05T15:30:58.145Z,53.42
2023-03-05T15:33:27.859Z,53.33
2023-03-05T15:35:55.135Z,52.65
2023-03-05T15:38:29.479Z,52.70
2023-03-05T15:40:57.001Z,54.92
2023-03-05T15:43:24.476Z,53.40
2023-03-05T15:45:51.583Z,52.88
2023-03-05T15:48:23.530Z,52.43
2023-03-05T15:50:53.397Z,52.14
2023-03-05T15:53:22.034Z,52.44
2023-03-05T15:55:49.038Z,52.52
2023-03-05T15:58:18.988Z,53.08
2023-03-05T16:00:47.991Z,52.38
2023-03-05T16:03:15.277Z,52.58
2023-03-05T16:05:42.725Z,52.95
2023-03-05T16:08:09.850Z,52.68
2023-03-05T16:10:39.010Z,53.71
2023-03-05T16:13:09.830Z,52.79
2023-03-05T16:15:39.184Z,53.02
2023-03-05T16:18:08.653Z,52.60
2023-03-05T16:20:36.747Z,53.27
2023-03-05T16:23:04.796Z,53.41
2023-03-05T16:25:31.871Z,54.28
2023-03-05T16:27:58.870Z,54.03
2023-03-05T16:30:26.161Z,54.43
2023-03-05T16:32:53.811Z,54.68
2023-03-05T16:35:20.951Z,54.79
2023-03-05T16:37:48.059Z,54.65
2023-03-05T16:40:15.226Z,54.90
2023-03-05T16:42:42.624Z,55.04
2023-03-05T16:45:10.405Z,55.65
2023-03-05T16:47:37.641Z,55.96
2023-03-05T16:50:05.753Z,56.30
2023-03-05T16:52:32.768Z,56.48
2023-03-05T16:54:59.821Z,57.89
2023-03-05T16:57:26.785Z,57.14
2023-03-05T16:59:54.919Z,57.19
2023-03-05T17:02:22.180Z,57.41
2023-03-05T17:04:50.789Z,57.68
2023-03-05T17:07:18.663Z,57.43
2023-03-05T17:09:48.363Z,58.06
2023-03-05T17:12:16.493Z,58.09
2023-03-05T17:14:43.957Z,58.50
2023-03-05T17:17:11.125Z,58.54
2023-03-05T17:19:38.336Z,58.72
2023-03-05T17:22:06.602Z,58.95
2023-03-05T17:24:34.278Z,59.49
2023-03-05T17:27:01.534Z,59.68
2023-03-05T17:29:29.124Z,59.62
2023-03-05T17:31:56.161Z,61.86
2023-03-05T17:34:35.719Z,60.13
2023-03-05T17:37:03.719Z,60.92
2023-03-05T17:39:30.743Z,60.32
2023-03-05T17:41:57.833Z,60.72
2023-03-05T17:44:24.956Z,61.29
2023-03-05T17:46:51.996Z,60.82
2023-03-05T17:49:19.018Z,60.67
2023-03-05T17:51:46.160Z,61.03
2023-03-05T17:54:12.986Z,60.74
2023-03-05T17:56:40.148Z,60.67
2023-03-05T17:59:07.362Z,61.32
2023-03-05T18:01:35.967Z,61.54
2023-03-05T18:04:04.087Z,61.10
2023-03-05T18:06:32.867Z,61.01
2023-03-05T18:09:00.946Z,61.20
2023-03-05T18:11:30.676Z,61.31
2023-03-05T18:13:59.340Z,60.72
2023-03-05T18:16:27.435Z,60.88
2023-03-05T18:18:55.957Z,61.61
2023-03-05T18:21:25.181Z,61.53
2023-03-05T18:23:52.963Z,61.33
2023-03-05T18:26:20.039Z,61.36
2023-03-05T18:28:47.125Z,60.51
2023-03-05T18:31:14.079Z,60.56
2023-03-05T18:33:42.420Z,60.79
2023-03-05T18:36:13.401Z,60.75
2023-03-05T18:38:40.274Z,60.92
2023-03-05T18:41:08.420Z,60.58
2023-03-05T18:43:35.994Z,60.88
2023-03-05T18:46:05.210Z,60.70
2023-03-05T18:48:35.253Z,61.31
2023-03-05T18:51:02.404Z,61.67
2023-03-05T18:53:29.220Z,61.79
2023-03-05T18:55:56.218Z,61.61
2023-03-05T18:58:31.350Z,62.07
2023-03-05T19:00:58.793Z,61.93
2023-03-05T19:03:25.899Z,61.78
2023-03-05T19:05:53.384Z,61.74
2023-03-05T19:08:25.425Z,62.22
2023-03-05T19:10:52.190Z,61.72
2023-03-05T19:13:23.666Z,61.78
2023-03-05T19:15:50.508Z,61.74
2023-03-05T19:18:30.477Z,62.43
2023-03-05T19:20:57.656Z,62.08
2023-03-05T19:23:25.526Z,62.26
2023-03-05T19:25:52.407Z,62.49
2023-03-05T19:28:27.422Z,62.38
2023-03-05T19:30:54.512Z,62.04
2023-03-05T19:33:23.485Z,62.27
2023-03-05T19:35:51.041Z,62.73
2023-03-05T19:38:20.756Z,63.51
2023-03-05T19:40:47.993Z,63.04
2023-03-05T19:43:14.924Z,62.87
2023-03-05T19:45:41.709Z,62.87
2023-03-05T19:48:08.815Z,62.96
2023-03-05T19:50:35.734Z,63.73
2023-03-05T19:53:02.662Z,63.07
2023-03-05T19:55:29.572Z,64.47
2023-03-05T19:57:56.523Z,64.43
2023-03-05T20:00:26.505Z,63.54
2023-03-05T20:02:53.983Z,63.63
2023-03-05T20:05:23.336Z,63.83
2023-03-05T20:07:50.206Z,63.86
2023-03-05T20:10:17.887Z,64.24
2023-03-05T20:12:48.162Z,64.42
2023-03-05T20:15:15.507Z,64.90
2023-03-05T20:17:46.307Z,64.95
2023-03-05T20:20:16.206Z,65.65
2023-03-05T20:22:45.069Z,66.10
2023-03-05T20:25:14.179Z,67.09
2023-03-05T20:27:40.976Z,66.27
2023-03-05T20:30:09.880Z,66.41
2023-03-05T20:32:39.155Z,66.05
2023-03-05T20:35:06.210Z,65.87
2023-03-05T20:37:40.257Z,66.33
2023-03-05T20:40:07.888Z,66.49
2023-03-05T20:42:34.851Z,66.94
2023-03-05T20:45:01.742Z,66.67
2023-03-05T20:47:40.706Z,65.93
2023-03-05T20:50:10.148Z,66.44
2023-03-05T20:52:37.832Z,66.89
2023-03-05T20:55:05.654Z,66.41
2023-03-05T20:57:32.460Z,67.10
2023-03-05T21:00:00.558Z,66.64
2023-03-05T21:02:27.850Z,66.39
2023-03-05T21:04:54.755Z,66.36
2023-03-05T21:07:21.645Z,66.77
2023-03-05T21:09:48.602Z,66.61
2023-03-05T21:12:15.425Z,66.51
2023-03-05T21:14:42.475Z,67.05
2023-03-05T21:17:09.777Z,66.72
2023-03-05T21:19:37.733Z,66.82
2023-03-05T21:22:04.599Z,66.87
2023-03-05T21:24:42.873Z,67.74
2023-03-05T21:27:09.909Z,68.04
2023-03-05T21:29:36.924Z,68.41
2023-03-05T21:32:04.765Z,69.00
2023-03-05T21:34:32.218Z,68.16
2023-03-05T21:36:59.168Z,68.08
2023-03-05T21:39:25.943Z,68.36
2023-03-05T21:41:52.854Z,68.04
2023-03-05T21:44:19.904Z,67.87
2023-03-05T21:46:46.728Z,67.99
2023-03-05T21:49:13.568Z,67.95
2023-03-05T21:51:51.429Z,67.93
2023-03-05T21:54:18.308Z,67.84
2023-03-05T21:56:48.481Z,68.55
2023-03-05T21:59:17.892Z,67.99
2023-03-05T22:01:46.990Z,68.12
2023-03-05T22:04:20.398Z,67.86
2023-03-05T22:06:53.582Z,68.09
2023-03-05T22:09:23.285Z,68.30
2023-03-05T22:11:50.482Z,68.63
2023-03-05T22:14:18.118Z,68.87
2023-03-05T22:16:46.261Z,68.53
2023-03-05T22:19:14.525Z,68.69
2023-03-05T22:21:43.509Z,69.15
2023-03-05T22:24:11.403Z,68.67
2023-03-05T22:26:39.829Z,68.72
2023-03-05T22:29:08.924Z,68.62
2023-03-05T22:31:35.784Z,69.00
2023-03-05T22:34:03.418Z,68.64
2023-03-05T22:36:31.883Z,69.02
2023-03-05T22:38:58.789Z,69.01
2023-03-05T22:41:25.644Z,69.09
2023-03-05T22:43:52.605Z,69.68
2023-03-05T22:46:20.777Z,69.37
2023-03-05T22:48:48.196Z,69.19
2023-03-05T22:51:16.257Z,69.42
2023-03-05T22:53:43.251Z,69.32
2023-03-05T22:56:12.247Z,70.15
2023-03-05T22:58:39.121Z,70.09
2023-03-05T23:01:09.107Z,69.84
2023-03-05T23:03:36.094Z,70.68
2023-03-05T23:06:02.991Z,70.50
2023-03-05T23:08:29.844Z,70.75
2023-03-05T23:11:00.481Z,70.81
2023-03-05T23:13:33.860Z,71.02
2023-03-05T23:16:00.739Z,70.91
2023-03-05T23:18:27.598Z,71.45
2023-03-05T23:20:54.704Z,70.96
2023-03-05T23:23:21.631Z,71.61
2023-03-05T23:25:50.546Z,71.40
2023-03-05T23:28:17.845Z,71.22
2023-03-05T23:30:44.729Z,71.51
2023-03-05T23:33:14.791Z,71.42
2023-03-05T23:35:48.902Z,71.81
2023-03-05T23:38:15.969Z,72.05
2023-03-05T23:40:44.400Z,72.39
2023-03-05T23:43:11.822Z,72.30
2023-03-05T23:45:40.648Z,72.36
2023-03-05T23:48:07.709Z,72.54
2023-03-05T23:50:35.981Z,73.15
2023-03-05T23:53:03.502Z,72.73
2023-03-05T23:55:33.008Z,72.74
2023-03-05T23:58:00.272Z,72.58
